Time;durP1;ratioP1;P1;durP2;ratioP2;P2;SDS_P1;SDS_P2;PMS_P1;PMS_P2;Temp;Humidity;BMP_temperature;BMP_pressure;BME280_temperature;BME280_humidity;BME280_pressure;Samples;Min_cycle;Max_cycle;Signal;HPM_P1;HPM_P2
2022/12/03 00:00:38;;;;;;;;;;;;;;;1.85;100.00;102616.19;5057515;27;20379;-76
2022/12/03 00:03:04;;;;;;;;;;;;;;;1.87;100.00;102611.84;5056736;28;19928;-76
2022/12/03 00:05:29;;;;;;;;;;;;;;;1.89;100.00;102611.88;5060343;28;19988;-76
2022/12/03 00:07:55;;;;;;;;;;;;;;;1.90;100.00;102611.03;5065292;28;19981;-77
2022/12/03 00:10:20;;;;;;;;;;;;;;;1.90;100.00;102598.88;5052819;28;19931;-77
2022/12/03 00:12:45;;;;;;;;;;;;;;;1.90;100.00;102606.72;5057387;28;20440;-77
2022/12/03 00:15:11;;;;;;;;;;;;;;;1.91;100.00;102597.16;5059964;28;20028;-77
2022/12/03 00:17:36;;;;;;;;;;;;;;;1.89;100.00;102591.00;5061547;28;19928;-76
2022/12/03 00:20:05;;;;;;;;;;;;;;;1.88;100.00;102591.84;5057464;28;19947;-76
2022/12/03 00:22:31;;;;;;;;;;;;;;;1.86;100.00;102594.44;5062125;28;20046;-76
2022/12/03 00:24:56;;;;;;;;;;;;;;;1.85;100.00;102594.41;5055957;27;20407;-76
2022/12/03 00:27:21;;;;;;;;;;;;;;;1.84;100.00;102592.63;5062160;28;19932;-77
2022/12/03 00:29:47;;;;;;;;;;;;;;;1.83;100.00;102597.00;5061522;28;19935;-76
2022/12/03 00:32:13;;;;;;;;;;;;;;;1.83;100.00;102593.50;5057147;28;20010;-76
2022/12/03 00:34:38;;;;;;;;;;;;;;;1.84;100.00;102595.25;5058328;28;19978;-76
2022/12/03 00:37:03;;;;;;;;;;;;;;;1.83;100.00;102586.53;5060073;28;20547;-76
2022/12/03 00:39:29;;;;;;;;;;;;;;;1.84;100.00;102583.06;5058927;28;20405;-76
2022/12/03 00:41:54;;;;;;;;;;;;;;;1.85;100.00;102576.13;5059179;28;19929;-76
2022/12/03 00:44:19;;;;;;;;;;;;;;;1.87;100.00;102577.91;5060125;28;19960;-77
2022/12/03 00:46:45;;;;;;;;;;;;;;;1.93;100.00;102569.31;5043697;28;19928;-77
2022/12/03 00:49:10;;;;;;;;;;;;;;;1.98;100.00;102570.28;5061765;28;20142;-77
2022/12/03 00:51:36;;;;;;;;;;;;;;;2.01;100.00;102567.72;5058641;28;19924;-77
2022/12/03 00:54:01;;;;;;;;;;;;;;;2.05;100.00;102563.41;5062728;28;19925;-77
2022/12/03 00:56:27;;;;;;;;;;;;;;;2.11;100.00;102567.88;5040029;28;19928;-77
2022/12/03 00:58:52;;;;;;;;;;;;;;;2.16;100.00;102563.59;5042335;28;20409;-77
2022/12/03 01:01:18;;;;;;;;;;;;;;;2.22;100.00;102555.00;5060604;28;20019;-76
2022/12/03 01:03:43;;;;;;;;;;;;;;;2.26;100.00;102557.69;5057896;28;19925;-77
2022/12/03 01:06:08;;;;;;;;;;;;;;;2.31;100.00;102553.41;5054956;28;19929;-77
2022/12/03 01:08:34;;;;;;;;;;;;;;;2.38;100.00;102556.13;5056079;28;19935;-77
2022/12/03 01:10:59;;;;;;;;;;;;;;;2.41;100.00;102559.66;5044262;28;20314;-77
2022/12/03 01:13:25;;;;;;;;;;;;;;;2.46;100.00;102559.75;5058734;28;19924;-77
2022/12/03 01:15:50;;;;;;;;;;;;;;;2.48;100.00;102549.31;5059376;28;19939;-77
2022/12/03 01:18:16;;;;;;;;;;;;;;;2.50;100.00;102556.31;5061776;28;20397;-76
2022/12/03 01:20:41;;;;;;;;;;;;;;;2.52;100.00;102545.91;5060597;28;19982;-77
2022/12/03 01:23:07;;;;;;;;;;;;;;;2.53;100.00;102548.53;5051543;28;19931;-76
2022/12/03 01:25:32;;;;;;;;;;;;;;;2.55;100.00;102548.53;5067279;28;19982;-77
2022/12/03 01:27:57;;;;;;;;;;;;;;;2.54;100.00;102547.69;5058149;28;19924;-77
2022/12/03 01:30:23;;;;;;;;;;;;;;;2.53;100.00;102555.50;5063184;28;19928;-77
2022/12/03 01:32:48;;;;;;;;;;;;;;;2.51;100.00;102547.63;5053134;28;19924;-76
2022/12/03 01:35:14;;;;;;;;;;;;;;;2.49;100.00;102549.34;5061886;28;20379;-77
2022/12/03 01:37:39;;;;;;;;;;;;;;;2.49;100.00;102549.34;5062947;28;20353;-76
2022/12/03 01:40:05;;;;;;;;;;;;;;;2.50;100.00;102548.47;5061888;28;19999;-77
2022/12/03 01:42:32;;;;;;;;;;;;;;;2.48;100.00;102542.34;5061259;28;19928;-76
2022/12/03 01:44:58;;;;;;;;;;;;;;;2.44;100.00;102544.03;5061523;28;19921;-77
2022/12/03 01:47:25;;;;;;;;;;;;;;;2.41;100.00;102543.97;5062013;28;20379;-77
2022/12/03 01:49:55;;;;;;;;;;;;;;;2.40;100.00;102549.22;5060371;27;19927;-77
2022/12/03 01:52:25;;;;;;;;;;;;;;;2.39;100.00;102556.16;5062159;28;19936;-76
2022/12/03 01:54:52;;;;;;;;;;;;;;;2.37;100.00;102550.03;5061927;28;19924;-77
2022/12/03 01:57:22;;;;;;;;;;;;;;;2.36;100.00;102547.38;5045142;28;20468;-78
2022/12/03 01:59:47;;;;;;;;;;;;;;;2.36;100.00;102550.00;5060049;28;19993;-76
2022/12/03 02:02:14;;;;;;;;;;;;;;;2.34;100.00;102541.25;5048517;28;19929;-77
2022/12/03 02:04:39;;;;;;;;;;;;;;;2.32;100.00;102541.22;5050488;28;19999;-77
2022/12/03 02:07:21;;;;;;;;;;;;;;;2.31;100.00;102529.00;5062200;28;20702;-77
2022/12/03 02:09:47;;;;;;;;;;;;;;;2.31;100.00;102540.34;5059520;28;19924;-77
2022/12/03 02:12:13;;;;;;;;;;;;;;;2.34;100.00;102531.66;5061357;28;19931;-76
2022/12/03 02:14:41;;;;;;;;;;;;;;;2.36;100.00;102531.69;5046660;28;19931;-76
2022/12/03 02:17:06;;;;;;;;;;;;;;;2.38;100.00;102532.59;5061089;28;19987;-77
2022/12/03 02:19:32;;;;;;;;;;;;;;;2.41;100.00;102530.03;5060125;28;19924;-76
2022/12/03 02:22:10;;;;;;;;;;;;;;;2.43;100.00;102537.06;5047007;28;19959;-76
2022/12/03 02:24:37;;;;;;;;;;;;;;;2.44;100.00;102530.06;5062192;28;20152;-76
2022/12/03 02:27:03;;;;;;;;;;;;;;;2.46;100.00;102524.88;5063117;28;20331;-77
2022/12/03 02:29:28;;;;;;;;;;;;;;;2.46;100.00;102528.38;5043376;28;19924;-76
2022/12/03 02:31:53;;;;;;;;;;;;;;;2.48;100.00;102531.00;5044333;28;20403;-76
2022/12/03 02:34:32;;;;;;;;;;;;;;;2.49;100.00;102533.66;5060577;28;19967;-76
2022/12/03 02:36:57;;;;;;;;;;;;;;;2.48;100.00;102537.13;5041208;28;19928;-76
2022/12/03 02:39:22;;;;;;;;;;;;;;;2.49;100.00;102523.19;5059738;28;20013;-76
2022/12/03 02:44:32;;;;;;;;;;;;;;;2.50;100.00;102517.09;5062055;28;19932;-76
2022/12/03 02:46:57;;;;;;;;;;;;;;;2.50;100.00;102517.09;5058876;28;19975;-76
2022/12/03 02:49:23;;;;;;;;;;;;;;;2.51;100.00;102516.25;5064020;28;21576;-77
2022/12/03 02:51:48;;;;;;;;;;;;;;;2.52;100.00;102518.03;5042894;28;19928;-76
2022/12/03 02:54:13;;;;;;;;;;;;;;;2.53;100.00;102522.41;5060592;28;20249;-76
2022/12/03 02:56:39;;;;;;;;;;;;;;;2.52;100.00;102514.53;5056450;28;19929;-76
2022/12/03 02:59:04;;;;;;;;;;;;;;;2.49;100.00;102517.06;5060965;28;19935;-76
2022/12/03 03:01:30;;;;;;;;;;;;;;;2.48;100.00;102516.22;5060197;28;20375;-77
2022/12/03 03:03:55;;;;;;;;;;;;;;;2.46;100.00;102514.41;5060023;28;19924;-76
2022/12/03 03:06:20;;;;;;;;;;;;;;;2.43;100.00;102512.63;5055960;28;19929;-76
2022/12/03 03:08:46;;;;;;;;;;;;;;;2.42;100.00;102516.09;5061266;28;20023;-76
2022/12/03 03:11:11;;;;;;;;;;;;;;;2.37;100.00;102510.81;5063133;28;20381;-76
2022/12/03 03:13:37;;;;;;;;;;;;;;;2.38;100.00;102514.28;5057830;28;20438;-76
2022/12/03 03:16:03;;;;;;;;;;;;;;;2.39;100.00;102506.47;5057146;28;19924;-76
2022/12/03 03:18:28;;;;;;;;;;;;;;;2.40;100.00;102507.38;5062258;28;19989;-76
2022/12/03 03:20:54;;;;;;;;;;;;;;;2.41;100.00;102509.13;5059636;28;19936;-76
2022/12/03 03:23:20;;;;;;;;;;;;;;;2.43;100.00;102517.88;5060203;28;21528;-77
2022/12/03 03:25:46;;;;;;;;;;;;;;;2.43;100.00;102517.88;5059571;28;20076;-76
2022/12/03 03:28:12;;;;;;;;;;;;;;;2.41;100.00;102522.19;5061506;28;19931;-76
2022/12/03 03:30:37;;;;;;;;;;;;;;;2.40;100.00;102517.84;5057564;28;19971;-76
2022/12/03 03:33:03;;;;;;;;;;;;;;;2.38;100.00;102516.91;5051394;28;19936;-76
2022/12/03 03:35:28;;;;;;;;;;;;;;;2.36;100.00;102516.91;5060251;28;19934;-76
2022/12/03 03:37:53;;;;;;;;;;;;;;;2.35;100.00;102509.03;5059748;28;19935;-76
2022/12/03 03:40:19;;;;;;;;;;;;;;;2.33;100.00;102516.84;5055839;28;19928;-76
2022/12/03 03:42:45;;;;;;;;;;;;;;;2.33;100.00;102516.84;5059435;28;19924;-77
2022/12/03 03:45:10;;;;;;;;;;;;;;;2.35;100.00;102522.09;5061353;28;19925;-76
2022/12/03 03:47:35;;;;;;;;;;;;;;;2.36;100.00;102522.13;5075678;27;19935;-76
2022/12/03 03:50:01;;;;;;;;;;;;;;;2.39;100.00;102516.06;5058500;28;19951;-76
2022/12/03 03:52:26;;;;;;;;;;;;;;;2.41;100.00;102511.75;5061646;28;20402;-76
2022/12/03 03:54:52;;;;;;;;;;;;;;;2.42;100.00;102522.22;5057843;28;19928;-76
2022/12/03 03:57:17;;;;;;;;;;;;;;;2.44;100.00;102524.84;5056894;28;19947;-77
2022/12/03 03:59:42;;;;;;;;;;;;;;;2.46;100.00;102522.25;5059320;28;19924;-76
2022/12/03 04:02:21;;;;;;;;;;;;;;;2.48;100.00;102516.22;5064632;28;19986;-76
2022/12/03 04:04:46;;;;;;;;;;;;;;;2.48;100.00;102518.81;5056713;28;19930;-76
2022/12/03 04:07:12;;;;;;;;;;;;;;;2.49;100.00;102520.56;5057760;28;19928;-76
2022/12/03 04:09:37;;;;;;;;;;;;;;;2.50;100.00;102524.09;5056578;28;19933;-76
2022/12/03 04:14:46;;;;;;;;;;;;;;;2.50;100.00;102511.00;5059331;28;20307;-76
2022/12/03 04:17:12;;;;;;;;;;;;;;;2.50;100.00;102517.09;5057569;28;20390;-76
2022/12/03 04:19:37;;;;;;;;;;;;;;;2.52;100.00;102512.78;5058994;28;19932;-76
2022/12/03 04:24:47;;;;;;;;;;;;;;;2.52;100.00;102514.53;5063148;28;19935;-77
2022/12/03 04:29:56;;;;;;;;;;;;;;;2.49;100.00;102507.50;5061621;28;19932;-76
2022/12/03 04:37:49;;;;;;;;;;;;;;;2.48;100.00;102503.13;5058916;28;19932;-76
2022/12/03 04:42:59;;;;;;;;;;;;;;;2.44;100.00;102496.09;5059889;28;20451;-77
2022/12/03 04:45:24;;;;;;;;;;;;;;;2.42;100.00;102498.69;5059990;28;19928;-76
2022/12/03 04:47:50;;;;;;;;;;;;;;;2.41;100.00;102490.81;5060685;28;19952;-76
2022/12/03 04:50:15;;;;;;;;;;;;;;;2.39;100.00;102479.47;5058997;28;19970;-77
2022/12/03 04:52:40;;;;;;;;;;;;;;;2.38;100.00;102482.91;5065344;28;20442;-77
2022/12/03 04:55:06;;;;;;;;;;;;;;;2.37;100.00;102489.00;5064056;28;19928;-76
2022/12/03 04:57:31;;;;;;;;;;;;;;;2.35;100.00;102483.78;5060313;28;20006;-77
2022/12/03 04:59:57;;;;;;;;;;;;;;;2.34;100.00;102486.38;5065801;28;19936;-76
2022/12/03 05:02:22;;;;;;;;;;;;;;;2.30;100.00;102486.28;5066702;28;19939;-76
2022/12/03 05:04:48;;;;;;;;;;;;;;;2.29;100.00;102484.53;5060903;28;19924;-76
2022/12/03 05:07:13;;;;;;;;;;;;;;;2.28;100.00;102488.03;5064490;28;19933;-76
2022/12/03 05:09:38;;;;;;;;;;;;;;;2.27;100.00;102483.66;5066747;28;19948;-76
2022/12/03 05:12:07;;;;;;;;;;;;;;;2.26;100.00;102483.63;5062405;28;19928;-76
2022/12/03 05:14:32;;;;;;;;;;;;;;;2.25;100.00;102493.22;5064716;28;22013;-76
2022/12/03 05:16:57;;;;;;;;;;;;;;;2.24;100.00;102480.97;5065001;28;19936;-76
2022/12/03 05:20:40;;;;;;;;;;;;;;;2.25;100.00;102488.00;5058002;28;19932;-76
2022/12/03 05:22:08;;;;;;;;;;;;;;;2.24;100.00;102480.97;5063641;28;19924;-76
2022/12/03 05:24:33;;;;;;;;;;;;;;;2.24;100.00;102478.34;5064964;28;20190;-77
2022/12/03 05:26:59;;;;;;;;;;;;;;;2.23;100.00;102479.22;5061300;28;20022;-76
2022/12/03 05:29:24;;;;;;;;;;;;;;;2.24;100.00;102475.75;5063801;28;19928;-76
2022/12/03 05:31:49;;;;;;;;;;;;;;;2.24;100.00;102474.88;5078579;28;20375;-76
2022/12/03 05:34:15;;;;;;;;;;;;;;;2.23;100.00;102465.28;5059050;28;19935;-76
2022/12/03 05:36:40;;;;;;;;;;;;;;;2.22;100.00;102469.63;5064302;28;20048;-76
2022/12/03 05:39:06;;;;;;;;;;;;;;;2.21;100.00;102470.47;5062129;28;19924;-77
2022/12/03 05:44:15;;;;;;;;;;;;;;;2.22;100.00;102469.63;5059942;28;19932;-76
2022/12/03 05:46:40;;;;;;;;;;;;;;;2.21;100.00;102467.88;5067405;28;20020;-76
2022/12/03 05:49:06;;;;;;;;;;;;;;;2.22;100.00;102467.00;5061609;28;19928;-77
2022/12/03 05:51:31;;;;;;;;;;;;;;;2.20;100.00;102460.00;5058010;28;20418;-76
2022/12/03 05:53:57;;;;;;;;;;;;;;;2.20;100.00;102463.50;5031372;28;19931;-77
2022/12/03 05:56:23;;;;;;;;;;;;;;;2.20;100.00;102470.44;5063258;28;19932;-77
2022/12/03 05:58:48;;;;;;;;;;;;;;;2.17;100.00;102466.06;5058642;28;19970;-76
2022/12/03 06:01:14;;;;;;;;;;;;;;;2.17;100.00;102463.44;5057611;28;21465;-76
2022/12/03 06:03:41;;;;;;;;;;;;;;;2.17;100.00;102468.66;5058320;28;19950;-77
2022/12/03 06:06:07;;;;;;;;;;;;;;;2.16;100.00;102461.69;5062503;28;20383;-76
2022/12/03 06:08:32;;;;;;;;;;;;;;;2.15;100.00;102459.94;5060127;28;19939;-76
2022/12/03 06:10:58;;;;;;;;;;;;;;;2.16;100.00;102451.22;5063433;28;20412;-77
2022/12/03 06:13:23;;;;;;;;;;;;;;;2.15;100.00;102463.44;5062021;28;19930;-76
2022/12/03 06:15:48;;;;;;;;;;;;;;;2.15;100.00;102459.94;5063334;28;19959;-77
2022/12/03 06:18:14;;;;;;;;;;;;;;;2.14;100.00;102460.78;5064630;28;20409;-76
2022/12/03 06:20:39;;;;;;;;;;;;;;;2.14;100.00;102468.63;5061720;28;19928;-76
2022/12/03 06:23:05;;;;;;;;;;;;;;;2.13;100.00;102456.44;5053546;28;19962;-76
2022/12/03 06:25:32;;;;;;;;;;;;;;;2.14;100.00;102458.19;5065797;28;19936;-76
2022/12/03 06:27:58;;;;;;;;;;;;;;;2.12;100.00;102458.16;5062398;28;19938;-76
2022/12/03 06:30:23;;;;;;;;;;;;;;;2.12;100.00;102460.75;5044882;28;20417;-76
2022/12/03 06:32:49;;;;;;;;;;;;;;;2.11;100.00;102458.13;5061921;28;20295;-76
2022/12/03 06:35:14;;;;;;;;;;;;;;;2.10;100.00;102454.63;5059808;28;19924;-76
2022/12/03 06:37:40;;;;;;;;;;;;;;;2.09;100.00;102444.16;5061566;28;20049;-76
2022/12/03 06:40:05;;;;;;;;;;;;;;;2.09;100.00;102457.22;5059955;28;20295;-77
2022/12/03 06:42:31;;;;;;;;;;;;;;;2.09;100.00;102454.59;5058741;28;19936;-76
2022/12/03 06:44:56;;;;;;;;;;;;;;;2.08;100.00;102445.00;5074058;28;19925;-76
2022/12/03 06:47:22;;;;;;;;;;;;;;;2.06;100.00;102450.22;5042402;28;19924;-76
2022/12/03 06:49:47;;;;;;;;;;;;;;;2.07;100.00;102451.09;5062254;28;19972;-76
2022/12/03 06:52:12;;;;;;;;;;;;;;;2.08;100.00;102452.84;5059937;28;19963;-76
2022/12/03 06:54:38;;;;;;;;;;;;;;;2.07;100.00;102453.72;5065140;28;19928;-76
2022/12/03 06:57:03;;;;;;;;;;;;;;;2.06;100.00;102450.22;5063056;28;20284;-77
2022/12/03 06:59:32;;;;;;;;;;;;;;;2.06;100.00;102449.34;5058551;28;20315;-76
2022/12/03 07:01:58;;;;;;;;;;;;;;;2.05;100.00;102448.44;5063728;28;20295;-75
2022/12/03 07:04:23;;;;;;;;;;;;;;;2.05;100.00;102442.38;5060688;28;19955;-76
2022/12/03 07:06:49;;;;;;;;;;;;;;;2.03;100.00;102445.81;5059416;28;19946;-76
2022/12/03 07:09:15;;;;;;;;;;;;;;;2.01;100.00;102439.69;5059412;28;19974;-75
2022/12/03 07:11:41;;;;;;;;;;;;;;;2.00;100.00;102445.78;5058051;28;20067;-76
2022/12/03 07:14:07;;;;;;;;;;;;;;;1.99;100.00;102440.50;5060474;28;20082;-75
2022/12/03 07:16:33;;;;;;;;;;;;;;;1.98;100.00;102447.50;5055489;28;19932;-76
2022/12/03 07:18:59;;;;;;;;;;;;;;;1.98;100.00;102441.38;5062302;28;19954;-76
2022/12/03 07:21:24;;;;;;;;;;;;;;;1.98;100.00;102444.88;5045632;28;19927;-76
2022/12/03 07:23:50;;;;;;;;;;;;;;;1.98;100.00;102439.66;5066621;28;19981;-76
2022/12/03 07:26:15;;;;;;;;;;;;;;;1.98;100.00;102443.97;5061148;28;19935;-76
2022/12/03 07:28:41;;;;;;;;;;;;;;;1.98;100.00;102447.50;5062369;28;19928;-76
2022/12/03 07:31:06;;;;;;;;;;;;;;;1.96;100.00;102445.72;5060508;28;19925;-76
2022/12/03 07:33:31;;;;;;;;;;;;;;;1.95;100.00;102436.97;5054431;28;19932;-75
2022/12/03 07:35:57;;;;;;;;;;;;;;;1.92;100.00;102436.94;5059339;28;19967;-76
2022/12/03 07:38:22;;;;;;;;;;;;;;;1.93;100.00;102443.03;5062073;28;19924;-76
2022/12/03 07:40:52;;;;;;;;;;;;;;;1.91;100.00;102440.41;5063022;28;19929;-75
2022/12/03 07:43:18;;;;;;;;;;;;;;;1.90;100.00;102444.75;5059663;28;20682;-76
2022/12/03 07:45:43;;;;;;;;;;;;;;;1.89;100.00;102448.22;5041257;28;20074;-76
2022/12/03 07:48:09;;;;;;;;;;;;;;;1.88;100.00;102450.78;5056303;28;20665;-76
2022/12/03 07:50:34;;;;;;;;;;;;;;;1.88;100.00;102445.56;5064441;28;19927;-76
2022/12/03 07:52:59;;;;;;;;;;;;;;;1.88;100.00;102448.19;5057924;28;20087;-75
2022/12/03 07:55:25;;;;;;;;;;;;;;;1.87;100.00;102443.81;5061078;28;19955;-75
2022/12/03 07:57:50;;;;;;;;;;;;;;;1.86;100.00;102447.28;5060832;28;20031;-76
2022/12/03 08:00:16;;;;;;;;;;;;;;;1.86;100.00;102448.16;5061385;28;19939;-75
2022/12/03 08:02:42;;;;;;;;;;;;;;;1.86;100.00;102444.66;5055467;28;19928;-76
2022/12/03 08:05:07;;;;;;;;;;;;;;;1.86;100.00;102445.53;5056689;28;20335;-76
2022/12/03 08:07:34;;;;;;;;;;;;;;;1.86;100.00;102439.44;5047954;28;19971;-77
2022/12/03 08:09:59;;;;;;;;;;;;;;;1.85;100.00;102441.16;5060073;28;19928;-76
2022/12/03 08:12:40;;;;;;;;;;;;;;;1.84;100.00;102438.53;5045072;28;20379;-76
2022/12/03 08:15:09;;;;;;;;;;;;;;;1.83;100.00;102442.00;5059561;28;19935;-76
2022/12/03 08:17:35;;;;;;;;;;;;;;;1.83;100.00;102442.00;5058991;28;20010;-76
2022/12/03 08:20:00;;;;;;;;;;;;;;;1.82;100.00;102446.34;5059395;28;19951;-76
2022/12/03 08:22:26;;;;;;;;;;;;;;;1.83;100.00;102442.00;5059441;28;19932;-76
2022/12/03 08:24:51;;;;;;;;;;;;;;;1.82;100.00;102440.25;5058216;28;19928;-77
2022/12/03 08:27:17;;;;;;;;;;;;;;;1.81;100.00;102438.47;5053036;28;19974;-76
2022/12/03 08:29:43;;;;;;;;;;;;;;;1.79;100.00;102432.38;5062138;28;19924;-77
2022/12/03 08:32:11;;;;;;;;;;;;;;;1.78;100.00;102426.25;5060243;28;19928;-77
2022/12/03 08:34:39;;;;;;;;;;;;;;;1.76;100.00;102441.03;5067131;28;20086;-78
2022/12/03 08:37:16;;;;;;;;;;;;;;;1.75;100.00;102432.28;5063537;28;19928;-80
2022/12/03 08:39:47;;;;;;;;;;;;;;;1.74;100.00;102443.59;5060693;28;20524;-77
2022/12/03 08:45:16;;;;;;;;;;;;;;;1.72;100.00;102440.09;5067041;28;19924;-76
2022/12/03 08:47:41;;;;;;;;;;;;;;;1.72;100.00;102442.72;5063614;28;19975;-76
2022/12/03 08:50:22;;;;;;;;;;;;;;;1.72;100.00;102429.66;5060703;28;19981;-76
2022/12/03 08:52:48;;;;;;;;;;;;;;;1.73;100.00;102436.63;5062065;28;20704;-77
2022/12/03 08:55:32;;;;;;;;;;;;;;;1.75;100.00;102440.13;5064898;28;19932;-77
2022/12/03 08:57:57;;;;;;;;;;;;;;;1.76;100.00;102436.66;5064312;28;19920;-77
2022/12/03 09:00:23;;;;;;;;;;;;;;;1.78;100.00;102434.09;5060588;28;19929;-78
2022/12/03 09:02:51;;;;;;;;;;;;;;;1.80;100.00;102434.13;5048858;28;19944;-78
2022/12/03 09:05:29;;;;;;;;;;;;;;;1.79;100.00;102435.84;5052630;28;19928;-78
2022/12/03 09:07:54;;;;;;;;;;;;;;;1.79;100.00;102430.63;5064981;28;20519;-78
2022/12/03 09:10:20;;;;;;;;;;;;;;;1.79;100.00;102433.22;5052133;28;19932;-78
2022/12/03 09:12:45;;;;;;;;;;;;;;;1.79;100.00;102434.97;5063869;28;19928;-78
2022/12/03 09:15:10;;;;;;;;;;;;;;;1.79;100.00;102440.19;5060012;28;19975;-79
2022/12/03 09:17:36;;;;;;;;;;;;;;;1.78;100.00;102428.88;5060387;28;20311;-78
2022/12/03 09:20:02;;;;;;;;;;;;;;;1.78;100.00;102428.00;5060871;28;20006;-78
2022/12/03 09:22:27;;;;;;;;;;;;;;;1.78;100.00;102428.00;5065353;28;19924;-78
2022/12/03 09:24:53;;;;;;;;;;;;;;;1.75;100.00;102424.47;5053246;28;20013;-78
2022/12/03 09:27:19;;;;;;;;;;;;;;;1.75;100.00;102434.03;5069395;28;20007;-78
2022/12/03 09:29:45;;;;;;;;;;;;;;;1.73;100.00;102431.41;5064665;28;19928;-78
2022/12/03 09:32:10;;;;;;;;;;;;;;;1.73;100.00;102430.50;5062072;28;19935;-78
2022/12/03 09:34:35;;;;;;;;;;;;;;;1.71;100.00;102427.00;5063918;28;19936;-78
2022/12/03 09:37:01;;;;;;;;;;;;;;;1.69;100.00;102442.63;5065855;28;19972;-78
2022/12/03 09:39:26;;;;;;;;;;;;;;;1.67;100.00;102431.28;5065594;28;20051;-78
2022/12/03 09:41:51;;;;;;;;;;;;;;;1.66;100.00;102426.03;5061196;28;19932;-78
2022/12/03 09:44:17;;;;;;;;;;;;;;;1.65;100.00;102430.41;5052351;28;20035;-78
2022/12/03 09:46:42;;;;;;;;;;;;;;;1.66;100.00;102432.16;5062677;28;20559;-78
2022/12/03 09:49:09;;;;;;;;;;;;;;;1.66;100.00;102445.22;5061756;28;19928;-78
2022/12/03 09:51:37;;;;;;;;;;;;;;;1.65;100.00;102438.22;5066440;28;19931;-78
2022/12/03 09:54:03;;;;;;;;;;;;;;;1.63;100.00;102429.47;5063463;28;19951;-78
2022/12/03 09:56:29;;;;;;;;;;;;;;;1.65;100.00;102433.00;5064622;28;19928;-78
2022/12/03 09:58:54;;;;;;;;;;;;;;;1.65;100.00;102433.00;5060456;28;19939;-78
2022/12/03 10:01:19;;;;;;;;;;;;;;;1.66;100.00;102431.25;5064717;28;20011;-78
2022/12/03 10:03:46;;;;;;;;;;;;;;;1.67;100.00;102433.00;5065188;28;19932;-78
2022/12/03 10:06:13;;;;;;;;;;;;;;;1.66;100.00;102426.03;5064729;28;20365;-78
2022/12/03 10:08:38;;;;;;;;;;;;;;;1.67;100.00;102431.28;5062928;28;20349;-78
2022/12/03 10:11:04;;;;;;;;;;;;;;;1.66;100.00;102426.94;5059476;28;19928;-78
2022/12/03 10:13:29;;;;;;;;;;;;;;;1.65;100.00;102427.78;5064086;28;19936;-78
2022/12/03 10:15:55;;;;;;;;;;;;;;;1.65;100.00;102425.19;5058010;28;20140;-78
2022/12/03 10:18:22;;;;;;;;;;;;;;;1.62;100.00;102422.50;5046426;28;20344;-78
2022/12/03 10:20:47;;;;;;;;;;;;;;;1.60;100.00;102424.22;5064035;28;19928;-78
2022/12/03 10:23:20;;;;;;;;;;;;;;;1.58;100.00;102412.88;5065200;28;19951;-78
2022/12/03 10:25:53;;;;;;;;;;;;;;;1.57;100.00;102414.59;5068081;28;20066;-78
2022/12/03 10:28:28;;;;;;;;;;;;;;;1.59;100.00;102414.63;5061948;28;19924;-79
2022/12/03 10:30:56;;;;;;;;;;;;;;;1.60;100.00;102414.66;5068602;28;19947;-78
2022/12/03 10:33:26;;;;;;;;;;;;;;;1.62;100.00;102404.22;5064321;28;19924;-78
2022/12/03 10:35:51;;;;;;;;;;;;;;;1.63;100.00;102399.03;5047935;28;20511;-78
2022/12/03 10:38:16;;;;;;;;;;;;;;;1.62;100.00;102404.22;5061415;28;21651;-78
2022/12/03 10:40:42;;;;;;;;;;;;;;;1.64;100.00;102405.16;5063415;28;19981;-78
2022/12/03 10:43:12;;;;;;;;;;;;;;;1.64;100.00;102399.91;5063659;28;20520;-78
2022/12/03 10:45:37;;;;;;;;;;;;;;;1.65;100.00;102398.16;5060959;28;20074;-78
2022/12/03 10:48:19;;;;;;;;;;;;;;;1.67;100.00;102402.56;5063076;28;19932;-78
2022/12/03 10:50:55;;;;;;;;;;;;;;;1.69;100.00;102400.84;5063735;28;20000;-78
2022/12/03 10:53:22;;;;;;;;;;;;;;;1.65;100.00;102390.34;5063828;28;21674;-79
2022/12/03 10:56:05;;;;;;;;;;;;;;;1.63;100.00;102393.81;5049155;28;20141;-78
2022/12/03 10:58:33;;;;;;;;;;;;;;;1.59;100.00;102384.16;5063394;28;19928;-78
2022/12/03 11:00:59;;;;;;;;;;;;;;;1.56;100.00;102389.34;5062279;28;19928;-79
2022/12/03 11:03:26;;;;;;;;;;;;;;;1.52;100.00;102387.50;5065023;28;20039;-78
2022/12/03 11:05:52;;;;;;;;;;;;;;;1.47;100.00;102384.81;5062521;28;19924;-79
2022/12/03 11:08:19;;;;;;;;;;;;;;;1.45;100.00;102394.38;5059493;28;20544;-78
2022/12/03 11:10:45;;;;;;;;;;;;;;;1.41;100.00;102387.31;5059272;28;20015;-79
2022/12/03 11:13:30;;;;;;;;;;;;;;;1.39;100.00;102386.44;5063427;28;20006;-79
2022/12/03 11:15:55;;;;;;;;;;;;;;;1.39;100.00;102386.44;5062266;28;19928;-78
2022/12/03 11:18:33;;;;;;;;;;;;;;;1.42;100.00;102370.81;5063103;28;20319;-79
2022/12/03 11:21:00;;;;;;;;;;;;;;;1.45;100.00;102370.00;5063071;28;20414;-79
2022/12/03 11:24:00;;;;;;;;;;;;;;;1.44;100.00;102368.25;5058963;28;19967;-78
2022/12/03 11:26:28;;;;;;;;;;;;;;;1.46;100.00;102367.41;5054380;28;20026;-78
2022/12/03 11:28:54;;;;;;;;;;;;;;;1.47;100.00;102361.34;5060700;28;19935;-78
2022/12/03 11:31:35;;;;;;;;;;;;;;;1.52;100.00;102360.53;5064357;28;20337;-79
2022/12/03 11:34:22;;;;;;;;;;;;;;;1.53;100.00;102355.31;5063509;28;20019;-78
2022/12/03 11:37:06;;;;;;;;;;;;;;;1.54;100.00;102351.88;5058577;28;19967;-78
2022/12/03 11:39:43;;;;;;;;;;;;;;;1.54;100.00;102346.66;5062329;28;19924;-79
2022/12/03 11:45:09;;;;;;;;;;;;;;;1.50;100.00;102339.63;5065919;28;19936;-79
2022/12/03 11:47:42;;;;;;;;;;;;;;;1.48;100.00;102334.38;5052343;28;20406;-79
2022/12/03 11:50:17;;;;;;;;;;;;;;;1.49;100.00;102337.88;5062553;28;19924;-78
2022/12/03 11:52:43;;;;;;;;;;;;;;;1.51;100.00;102340.53;5063187;28;19924;-78
2022/12/03 11:55:23;;;;;;;;;;;;;;;1.48;100.00;102331.75;5043656;28;20011;-78
2022/12/03 11:57:51;;;;;;;;;;;;;;;1.48;100.00;102329.16;5058857;28;19923;-78
2022/12/03 12:00:16;;;;;;;;;;;;;;;1.48;100.00;102331.75;5060934;28;19928;-78
2022/12/03 12:02:42;;;;;;;;;;;;;;;1.44;100.00;102316.94;5062462;28;19925;-78
2022/12/03 12:05:14;;;;;;;;;;;;;;;1.40;100.00;102307.28;5046331;28;19971;-79
2022/12/03 12:07:40;;;;;;;;;;;;;;;1.35;100.00;102311.53;5028882;28;19951;-78
2022/12/03 12:10:06;;;;;;;;;;;;;;;1.33;100.00;102305.41;5040733;28;21410;-79
2022/12/03 12:12:31;;;;;;;;;;;;;;;1.32;100.00;102301.91;5042236;28;19940;-78
2022/12/03 12:14:57;;;;;;;;;;;;;;;1.33;100.00;102297.59;5040653;28;20176;-79
2022/12/03 12:17:35;;;;;;;;;;;;;;;1.33;100.00;102297.59;5040008;28;19932;-79
2022/12/03 12:20:19;;;;;;;;;;;;;;;1.30;100.00;102292.34;5024377;28;20639;-79
2022/12/03 12:22:44;;;;;;;;;;;;;;;1.28;100.00;102287.06;5041645;28;20287;-79
2022/12/03 12:25:28;;;;;;;;;;;;;;;1.29;100.00;102288.84;5040067;28;20042;-78
2022/12/03 12:27:54;;;;;;;;;;;;;;;1.29;100.00;102283.63;5041156;28;20793;-78
2022/12/03 12:30:23;;;;;;;;;;;;;;;1.32;100.00;102277.56;5040592;28;19950;-79
2022/12/03 12:32:49;;;;;;;;;;;;;;;1.34;100.00;102281.06;5041387;28;19924;-78
2022/12/03 12:35:19;;;;;;;;;;;;;;;1.33;100.00;102274.09;5025073;28;19932;-79
2022/12/03 12:37:55;;;;;;;;;;;;;;;1.33;100.00;102274.09;5040608;28;19928;-79
2022/12/03 12:40:22;;;;;;;;;;;;;;;1.34;100.00;102275.84;5038714;28;19928;-78
2022/12/03 12:42:52;;;;;;;;;;;;;;;1.35;100.00;102272.38;5039608;28;20602;-79
2022/12/03 12:45:19;;;;;;;;;;;;;;;1.35;100.00;102267.16;5025714;28;19928;-79
2022/12/03 12:48:03;;;;;;;;;;;;;;;1.34;100.00;102276.75;5039622;28;20124;-79
2022/12/03 12:50:29;;;;;;;;;;;;;;;1.36;100.00;102274.13;5035372;28;19928;-78
2022/12/03 12:53:00;;;;;;;;;;;;;;;1.33;100.00;102275.00;5040981;28;19928;-79
2022/12/03 12:55:25;;;;;;;;;;;;;;;1.34;100.00;102281.97;5041144;28;20063;-78
2022/12/03 12:57:51;;;;;;;;;;;;;;;1.36;100.00;102276.75;5043496;28;19929;-80
2022/12/03 13:00:20;;;;;;;;;;;;;;;1.35;100.00;102272.38;5041027;28;20385;-79
2022/12/03 13:02:50;;;;;;;;;;;;;;;1.35;100.00;102267.16;5040001;28;20466;-79